sensor_id;sensor_type;location;lat;lon;timestamp;P1;durP1;ratioP1;P2;durP2;ratioP2
31464;SDS011;18089;47.428;15.006;2023-01-19T00:02:06;31.90;;;24.17;;
31464;SDS011;18089;47.428;15.006;2023-01-19T00:04:40;30.37;;;23.37;;
31464;SDS011;18089;47.428;15.006;2023-01-19T00:07:12;24.33;;;21.00;;
31464;SDS011;18089;47.428;15.006;2023-01-19T00:09:44;25.07;;;20.80;;
31464;SDS011;18089;47.428;15.006;2023-01-19T00:12:16;22.53;;;19.30;;
31464;SDS011;18089;47.428;15.006;2023-01-19T00:14:48;22.90;;;19.13;;
31464;SDS011;18089;47.428;15.006;2023-01-19T00:17:20;20.07;;;18.13;;
31464;SDS011;18089;47.428;15.006;2023-01-19T00:19:53;20.10;;;18.10;;
31464;SDS011;18089;47.428;15.006;2023-01-19T00:22:25;17.37;;;15.70;;
31464;SDS011;18089;47.428;15.006;2023-01-19T00:24:57;16.13;;;14.73;;
31464;SDS011;18089;47.428;15.006;2023-01-19T00:27:29;14.83;;;13.73;;
31464;SDS011;18089;47.428;15.006;2023-01-19T00:30:04;14.80;;;13.60;;
31464;SDS011;18089;47.428;15.006;2023-01-19T00:32:37;13.93;;;12.83;;
31464;SDS011;18089;47.428;15.006;2023-01-19T00:35:10;13.60;;;12.67;;
31464;SDS011;18089;47.428;15.006;2023-01-19T00:37:42;13.80;;;12.80;;
31464;SDS011;18089;47.428;15.006;2023-01-19T00:40:15;13.23;;;12.33;;
31464;SDS011;18089;47.428;15.006;2023-01-19T00:42:48;12.67;;;11.93;;
31464;SDS011;18089;47.428;15.006;2023-01-19T00:45:19;13.17;;;12.33;;
31464;SDS011;18089;47.428;15.006;2023-01-19T00:47:52;12.80;;;12.00;;
31464;SDS011;18089;47.428;15.006;2023-01-19T00:50:28;13.47;;;12.53;;
31464;SDS011;18089;47.428;15.006;2023-01-19T00:53:00;13.30;;;12.50;;
31464;SDS011;18089;47.428;15.006;2023-01-19T00:55:32;12.60;;;11.80;;
31464;SDS011;18089;47.428;15.006;2023-01-19T00:58:05;12.47;;;11.67;;
31464;SDS011;18089;47.428;15.006;2023-01-19T01:00:37;12.67;;;11.87;;
31464;SDS011;18089;47.428;15.006;2023-01-19T01:03:09;13.27;;;12.47;;
31464;SDS011;18089;47.428;15.006;2023-01-19T01:05:42;13.00;;;12.10;;
31464;SDS011;18089;47.428;15.006;2023-01-19T01:08:14;12.80;;;12.03;;
31464;SDS011;18089;47.428;15.006;2023-01-19T01:10:46;12.20;;;11.40;;
31464;SDS011;18089;47.428;15.006;2023-01-19T01:13:19;12.00;;;11.30;;
31464;SDS011;18089;47.428;15.006;2023-01-19T01:15:51;11.87;;;11.23;;
31464;SDS011;18089;47.428;15.006;2023-01-19T01:18:23;13.40;;;12.40;;
31464;SDS011;18089;47.428;15.006;2023-01-19T01:21:00;12.70;;;11.90;;
31464;SDS011;18089;47.428;15.006;2023-01-19T01:23:33;12.17;;;11.47;;
31464;SDS011;18089;47.428;15.006;2023-01-19T01:26:05;11.87;;;11.27;;
31464;SDS011;18089;47.428;15.006;2023-01-19T01:28:37;11.70;;;11.10;;
31464;SDS011;18089;47.428;15.006;2023-01-19T01:31:09;11.63;;;10.93;;
31464;SDS011;18089;47.428;15.006;2023-01-19T01:33:41;11.53;;;10.93;;
31464;SDS011;18089;47.428;15.006;2023-01-19T01:36:15;11.60;;;11.00;;
31464;SDS011;18089;47.428;15.006;2023-01-19T01:38:48;12.47;;;11.77;;
31464;SDS011;18089;47.428;15.006;2023-01-19T01:41:20;12.63;;;11.93;;
31464;SDS011;18089;47.428;15.006;2023-01-19T01:43:52;11.83;;;11.23;;
31464;SDS011;18089;47.428;15.006;2023-01-19T01:46:28;12.00;;;11.30;;
31464;SDS011;18089;47.428;15.006;2023-01-19T01:49:02;12.07;;;11.40;;
31464;SDS011;18089;47.428;15.006;2023-01-19T01:51:38;12.00;;;11.30;;
31464;SDS011;18089;47.428;15.006;2023-01-19T01:54:13;12.27;;;11.57;;
31464;SDS011;18089;47.428;15.006;2023-01-19T01:56:48;12.10;;;11.40;;
31464;SDS011;18089;47.428;15.006;2023-01-19T01:59:22;11.97;;;11.33;;
31464;SDS011;18089;47.428;15.006;2023-01-19T02:01:58;12.53;;;11.83;;
31464;SDS011;18089;47.428;15.006;2023-01-19T02:04:50;12.10;;;11.40;;
31464;SDS011;18089;47.428;15.006;2023-01-19T02:07:28;11.93;;;11.27;;
31464;SDS011;18089;47.428;15.006;2023-01-19T02:10:21;12.50;;;11.80;;
31464;SDS011;18089;47.428;15.006;2023-01-19T02:13:10;11.93;;;11.30;;
31464;SDS011;18089;47.428;15.006;2023-01-19T02:15:53;12.33;;;11.73;;
31464;SDS011;18089;47.428;15.006;2023-01-19T02:18:27;12.83;;;12.03;;
31464;SDS011;18089;47.428;15.006;2023-01-19T02:21:03;13.27;;;12.47;;
31464;SDS011;18089;47.428;15.006;2023-01-19T02:23:41;12.77;;;12.07;;
31464;SDS011;18089;47.428;15.006;2023-01-19T02:26:15;12.20;;;11.50;;
31464;SDS011;18089;47.428;15.006;2023-01-19T02:28:50;12.60;;;11.90;;
31464;SDS011;18089;47.428;15.006;2023-01-19T02:31:24;12.60;;;11.90;;
31464;SDS011;18089;47.428;15.006;2023-01-19T02:33:57;13.10;;;12.30;;
31464;SDS011;18089;47.428;15.006;2023-01-19T02:36:31;12.90;;;12.10;;
31464;SDS011;18089;47.428;15.006;2023-01-19T02:39:09;12.90;;;12.10;;
31464;SDS011;18089;47.428;15.006;2023-01-19T02:41:42;13.07;;;12.37;;
31464;SDS011;18089;47.428;15.006;2023-01-19T02:44:16;12.93;;;12.23;;
31464;SDS011;18089;47.428;15.006;2023-01-19T02:46:51;12.90;;;12.13;;
31464;SDS011;18089;47.428;15.006;2023-01-19T02:49:26;12.80;;;12.07;;
31464;SDS011;18089;47.428;15.006;2023-01-19T02:51:59;12.43;;;11.73;;
31464;SDS011;18089;47.428;15.006;2023-01-19T02:54:35;13.20;;;12.50;;
31464;SDS011;18089;47.428;15.006;2023-01-19T02:57:16;13.03;;;12.30;;
31464;SDS011;18089;47.428;15.006;2023-01-19T02:59:57;13.73;;;12.93;;
31464;SDS011;18089;47.428;15.006;2023-01-19T03:02:42;13.60;;;12.80;;
31464;SDS011;18089;47.428;15.006;2023-01-19T03:05:23;13.27;;;12.47;;
31464;SDS011;18089;47.428;15.006;2023-01-19T03:08:05;13.60;;;12.80;;
31464;SDS011;18089;47.428;15.006;2023-01-19T03:10:43;13.50;;;12.70;;
31464;SDS011;18089;47.428;15.006;2023-01-19T03:13:20;13.90;;;13.00;;
31464;SDS011;18089;47.428;15.006;2023-01-19T03:15:58;13.90;;;13.03;;
31464;SDS011;18089;47.428;15.006;2023-01-19T03:18:35;13.47;;;12.67;;
31464;SDS011;18089;47.428;15.006;2023-01-19T03:21:08;13.70;;;12.90;;
31464;SDS011;18089;47.428;15.006;2023-01-19T03:23:42;13.97;;;13.17;;
31464;SDS011;18089;47.428;15.006;2023-01-19T03:26:18;13.03;;;12.33;;
31464;SDS011;18089;47.428;15.006;2023-01-19T03:28:53;13.60;;;12.80;;
31464;SDS011;18089;47.428;15.006;2023-01-19T03:31:27;13.53;;;12.83;;
31464;SDS011;18089;47.428;15.006;2023-01-19T03:34:01;13.43;;;12.60;;
31464;SDS011;18089;47.428;15.006;2023-01-19T03:36:36;13.03;;;12.23;;
31464;SDS011;18089;47.428;15.006;2023-01-19T03:39:10;13.20;;;12.40;;
31464;SDS011;18089;47.428;15.006;2023-01-19T03:41:46;13.57;;;12.73;;
31464;SDS011;18089;47.428;15.006;2023-01-19T03:44:19;13.67;;;12.87;;
31464;SDS011;18089;47.428;15.006;2023-01-19T03:46:51;14.13;;;13.13;;
31464;SDS011;18089;47.428;15.006;2023-01-19T03:49:23;14.03;;;13.13;;
31464;SDS011;18089;47.428;15.006;2023-01-19T03:51:55;14.30;;;13.30;;
31464;SDS011;18089;47.428;15.006;2023-01-19T03:54:28;14.13;;;13.23;;
31464;SDS011;18089;47.428;15.006;2023-01-19T03:57:02;14.57;;;13.67;;
31464;SDS011;18089;47.428;15.006;2023-01-19T03:59:34;14.17;;;13.33;;
31464;SDS011;18089;47.428;15.006;2023-01-19T04:02:06;14.30;;;13.40;;
31464;SDS011;18089;47.428;15.006;2023-01-19T04:04:38;14.03;;;13.13;;
31464;SDS011;18089;47.428;15.006;2023-01-19T04:07:10;14.80;;;13.80;;
31464;SDS011;18089;47.428;15.006;2023-01-19T04:09:42;14.37;;;13.47;;
31464;SDS011;18089;47.428;15.006;2023-01-19T04:12:16;14.40;;;13.40;;
31464;SDS011;18089;47.428;15.006;2023-01-19T04:14:48;14.67;;;13.67;;
31464;SDS011;18089;47.428;15.006;2023-01-19T04:17:20;14.47;;;13.43;;
31464;SDS011;18089;47.428;15.006;2023-01-19T04:19:52;14.20;;;13.30;;
31464;SDS011;18089;47.428;15.006;2023-01-19T04:22:24;14.10;;;13.10;;
31464;SDS011;18089;47.428;15.006;2023-01-19T04:24:56;14.57;;;13.57;;
31464;SDS011;18089;47.428;15.006;2023-01-19T04:27:29;14.10;;;13.20;;
31464;SDS011;18089;47.428;15.006;2023-01-19T04:30:01;14.30;;;13.40;;
31464;SDS011;18089;47.428;15.006;2023-01-19T04:32:34;14.63;;;13.63;;
31464;SDS011;18089;47.428;15.006;2023-01-19T04:35:06;14.50;;;13.60;;
31464;SDS011;18089;47.428;15.006;2023-01-19T04:37:38;13.83;;;12.93;;
31464;SDS011;18089;47.428;15.006;2023-01-19T04:40:10;14.73;;;13.53;;
31464;SDS011;18089;47.428;15.006;2023-01-19T04:42:44;14.57;;;13.50;;
31464;SDS011;18089;47.428;15.006;2023-01-19T04:45:16;14.23;;;13.33;;
31464;SDS011;18089;47.428;15.006;2023-01-19T04:47:49;14.10;;;13.10;;
31464;SDS011;18089;47.428;15.006;2023-01-19T04:50:21;15.60;;;14.43;;
31464;SDS011;18089;47.428;15.006;2023-01-19T04:52:54;14.43;;;13.43;;
31464;SDS011;18089;47.428;15.006;2023-01-19T04:55:26;14.90;;;13.90;;
31464;SDS011;18089;47.428;15.006;2023-01-19T04:57:59;14.70;;;13.63;;
31464;SDS011;18089;47.428;15.006;2023-01-19T05:00:32;15.33;;;14.23;;
31464;SDS011;18089;47.428;15.006;2023-01-19T05:03:04;18.97;;;17.27;;
31464;SDS011;18089;47.428;15.006;2023-01-19T05:05:36;18.27;;;16.57;;
31464;SDS011;18089;47.428;15.006;2023-01-19T05:08:08;16.77;;;15.47;;
31464;SDS011;18089;47.428;15.006;2023-01-19T05:10:40;17.77;;;16.27;;
31464;SDS011;18089;47.428;15.006;2023-01-19T05:13:13;16.83;;;15.53;;
31464;SDS011;18089;47.428;15.006;2023-01-19T05:15:45;15.30;;;14.20;;
31464;SDS011;18089;47.428;15.006;2023-01-19T05:18:17;15.87;;;14.67;;
31464;SDS011;18089;47.428;15.006;2023-01-19T05:20:49;16.37;;;15.13;;
31464;SDS011;18089;47.428;15.006;2023-01-19T05:23:21;15.40;;;14.20;;
31464;SDS011;18089;47.428;15.006;2023-01-19T05:25:53;15.90;;;14.70;;
31464;SDS011;18089;47.428;15.006;2023-01-19T05:28:27;15.60;;;14.40;;
31464;SDS011;18089;47.428;15.006;2023-01-19T05:30:59;18.13;;;16.53;;
31464;SDS011;18089;47.428;15.006;2023-01-19T05:33:31;16.87;;;15.47;;
31464;SDS011;18089;47.428;15.006;2023-01-19T05:36:03;16.37;;;15.17;;
31464;SDS011;18089;47.428;15.006;2023-01-19T05:38:35;17.17;;;15.77;;
31464;SDS011;18089;47.428;15.006;2023-01-19T05:41:07;19.73;;;17.63;;
31464;SDS011;18089;47.428;15.006;2023-01-19T05:43:41;17.37;;;15.87;;
31464;SDS011;18089;47.428;15.006;2023-01-19T05:46:13;16.80;;;15.40;;
31464;SDS011;18089;47.428;15.006;2023-01-19T05:48:45;17.43;;;15.93;;
31464;SDS011;18089;47.428;15.006;2023-01-19T05:51:17;15.50;;;14.30;;
31464;SDS011;18089;47.428;15.006;2023-01-19T05:53:49;16.47;;;15.07;;
31464;SDS011;18089;47.428;15.006;2023-01-19T05:56:21;16.40;;;15.20;;
31464;SDS011;18089;47.428;15.006;2023-01-19T05:58:54;17.30;;;15.90;;
31464;SDS011;18089;47.428;15.006;2023-01-19T06:01:26;19.17;;;17.13;;
31464;SDS011;18089;47.428;15.006;2023-01-19T06:03:58;17.97;;;16.47;;
31464;SDS011;18089;47.428;15.006;2023-01-19T06:06:30;18.97;;;17.27;;
31464;SDS011;18089;47.428;15.006;2023-01-19T06:09:02;20.47;;;18.37;;
31464;SDS011;18089;47.428;15.006;2023-01-19T06:11:34;18.03;;;16.33;;
31464;SDS011;18089;47.428;15.006;2023-01-19T06:14:09;27.07;;;23.17;;
31464;SDS011;18089;47.428;15.006;2023-01-19T06:16:41;20.57;;;18.47;;
31464;SDS011;18089;47.428;15.006;2023-01-19T06:19:13;18.60;;;17.00;;
31464;SDS011;18089;47.428;15.006;2023-01-19T06:21:46;18.17;;;16.57;;
31464;SDS011;18089;47.428;15.006;2023-01-19T06:24:21;18.80;;;17.20;;
31464;SDS011;18089;47.428;15.006;2023-01-19T06:26:54;18.23;;;16.53;;
31464;SDS011;18089;47.428;15.006;2023-01-19T06:29:27;18.30;;;16.60;;
31464;SDS011;18089;47.428;15.006;2023-01-19T06:31:59;17.93;;;16.33;;
31464;SDS011;18089;47.428;15.006;2023-01-19T06:34:31;17.77;;;16.07;;
31464;SDS011;18089;47.428;15.006;2023-01-19T06:37:03;18.77;;;16.97;;
31464;SDS011;18089;47.428;15.006;2023-01-19T06:39:35;19.50;;;17.47;;
31464;SDS011;18089;47.428;15.006;2023-01-19T06:42:10;18.87;;;17.03;;
31464;SDS011;18089;47.428;15.006;2023-01-19T06:44:43;19.20;;;17.20;;
31464;SDS011;18089;47.428;15.006;2023-01-19T06:47:16;19.00;;;17.00;;
31464;SDS011;18089;47.428;15.006;2023-01-19T06:49:48;18.17;;;16.47;;
31464;SDS011;18089;47.428;15.006;2023-01-19T06:52:20;17.97;;;16.27;;
31464;SDS011;18089;47.428;15.006;2023-01-19T06:54:52;18.20;;;16.40;;
31464;SDS011;18089;47.428;15.006;2023-01-19T06:57:24;17.60;;;16.07;;
31464;SDS011;18089;47.428;15.006;2023-01-19T06:59:58;16.60;;;15.20;;
31464;SDS011;18089;47.428;15.006;2023-01-19T07:02:31;16.23;;;14.80;;
31464;SDS011;18089;47.428;15.006;2023-01-19T07:05:03;15.60;;;14.43;;
31464;SDS011;18089;47.428;15.006;2023-01-19T07:07:36;15.10;;;14.00;;
31464;SDS011;18089;47.428;15.006;2023-01-19T07:10:09;15.57;;;14.27;;
31464;SDS011;18089;47.428;15.006;2023-01-19T07:12:42;15.27;;;14.17;;
31464;SDS011;18089;47.428;15.006;2023-01-19T07:15:18;15.87;;;14.57;;
31464;SDS011;18089;47.428;15.006;2023-01-19T07:17:51;15.97;;;14.67;;
31464;SDS011;18089;47.428;15.006;2023-01-19T07:20:23;16.60;;;15.20;;
31464;SDS011;18089;47.428;15.006;2023-01-19T07:22:55;16.50;;;15.10;;
31464;SDS011;18089;47.428;15.006;2023-01-19T07:25:27;21.80;;;19.70;;
31464;SDS011;18089;47.428;15.006;2023-01-19T07:28:00;34.00;;;24.63;;
31464;SDS011;18089;47.428;15.006;2023-01-19T07:30:33;20.23;;;18.10;;
31464;SDS011;18089;47.428;15.006;2023-01-19T07:33:05;17.30;;;15.73;;
31464;SDS011;18089;47.428;15.006;2023-01-19T07:35:37;17.40;;;15.97;;
31464;SDS011;18089;47.428;15.006;2023-01-19T07:38:09;18.00;;;16.13;;
31464;SDS011;18089;47.428;15.006;2023-01-19T07:40:42;15.03;;;13.93;;
31464;SDS011;18089;47.428;15.006;2023-01-19T07:43:16;15.77;;;14.57;;
31464;SDS011;18089;47.428;15.006;2023-01-19T07:45:49;15.53;;;14.40;;
31464;SDS011;18089;47.428;15.006;2023-01-19T07:48:22;15.33;;;14.23;;
31464;SDS011;18089;47.428;15.006;2023-01-19T07:50:57;14.80;;;13.70;;
31464;SDS011;18089;47.428;15.006;2023-01-19T07:53:30;14.80;;;13.80;;
31464;SDS011;18089;47.428;15.006;2023-01-19T07:56:02;15.20;;;14.10;;
31464;SDS011;18089;47.428;15.006;2023-01-19T07:58:36;15.20;;;14.10;;
31464;SDS011;18089;47.428;15.006;2023-01-19T08:01:10;15.57;;;14.47;;
31464;SDS011;18089;47.428;15.006;2023-01-19T08:03:43;15.20;;;14.10;;
31464;SDS011;18089;47.428;15.006;2023-01-19T08:06:21;15.23;;;14.13;;
31464;SDS011;18089;47.428;15.006;2023-01-19T08:08:54;15.43;;;14.27;;
31464;SDS011;18089;47.428;15.006;2023-01-19T08:11:26;15.20;;;14.20;;
31464;SDS011;18089;47.428;15.006;2023-01-19T08:13:58;15.63;;;14.53;;
31464;SDS011;18089;47.428;15.006;2023-01-19T08:16:32;15.10;;;14.00;;
31464;SDS011;18089;47.428;15.006;2023-01-19T08:19:04;15.30;;;14.23;;
31464;SDS011;18089;47.428;15.006;2023-01-19T08:21:36;15.50;;;14.30;;
31464;SDS011;18089;47.428;15.006;2023-01-19T08:24:09;15.40;;;14.20;;
31464;SDS011;18089;47.428;15.006;2023-01-19T08:26:48;16.20;;;14.90;;
31464;SDS011;18089;47.428;15.006;2023-01-19T08:29:20;16.60;;;15.30;;
31464;SDS011;18089;47.428;15.006;2023-01-19T08:31:54;18.00;;;16.50;;
31464;SDS011;18089;47.428;15.006;2023-01-19T08:34:28;17.27;;;15.87;;
31464;SDS011;18089;47.428;15.006;2023-01-19T08:37:01;17.00;;;15.70;;
31464;SDS011;18089;47.428;15.006;2023-01-19T08:39:33;17.20;;;15.80;;
31464;SDS011;18089;47.428;15.006;2023-01-19T08:42:05;16.73;;;15.43;;
31464;SDS011;18089;47.428;15.006;2023-01-19T08:44:37;16.20;;;14.90;;
31464;SDS011;18089;47.428;15.006;2023-01-19T08:47:10;15.97;;;14.70;;
31464;SDS011;18089;47.428;15.006;2023-01-19T08:49:42;16.70;;;15.40;;
31464;SDS011;18089;47.428;15.006;2023-01-19T08:52:14;16.20;;;15.00;;
31464;SDS011;18089;47.428;15.006;2023-01-19T08:54:46;15.90;;;14.73;;
31464;SDS011;18089;47.428;15.006;2023-01-19T08:57:19;16.40;;;15.10;;
31464;SDS011;18089;47.428;15.006;2023-01-19T08:59:51;17.20;;;15.80;;
31464;SDS011;18089;47.428;15.006;2023-01-19T09:02:25;14.97;;;13.87;;
31464;SDS011;18089;47.428;15.006;2023-01-19T09:04:57;14.90;;;14.00;;
31464;SDS011;18089;47.428;15.006;2023-01-19T09:07:29;20.43;;;18.43;;
31464;SDS011;18089;47.428;15.006;2023-01-19T09:10:01;17.50;;;16.00;;
31464;SDS011;18089;47.428;15.006;2023-01-19T09:12:33;15.27;;;14.07;;
31464;SDS011;18089;47.428;15.006;2023-01-19T09:15:06;16.90;;;15.30;;
31464;SDS011;18089;47.428;15.006;2023-01-19T09:17:41;15.67;;;14.53;;
31464;SDS011;18089;47.428;15.006;2023-01-19T09:20:13;15.60;;;14.40;;
31464;SDS011;18089;47.428;15.006;2023-01-19T09:22:45;15.57;;;14.47;;
31464;SDS011;18089;47.428;15.006;2023-01-19T09:25:17;15.27;;;14.17;;
31464;SDS011;18089;47.428;15.006;2023-01-19T09:27:49;15.50;;;14.30;;
31464;SDS011;18089;47.428;15.006;2023-01-19T09:30:22;14.33;;;13.03;;
31464;SDS011;18089;47.428;15.006;2023-01-19T09:32:59;14.63;;;13.63;;
31464;SDS011;18089;47.428;15.006;2023-01-19T09:35:32;14.73;;;13.73;;
31464;SDS011;18089;47.428;15.006;2023-01-19T09:38:05;13.97;;;12.97;;
31464;SDS011;18089;47.428;15.006;2023-01-19T09:40:39;14.17;;;13.17;;
31464;SDS011;18089;47.428;15.006;2023-01-19T09:43:13;14.93;;;13.93;;
31464;SDS011;18089;47.428;15.006;2023-01-19T09:45:50;16.43;;;15.03;;
31464;SDS011;18089;47.428;15.006;2023-01-19T09:48:38;16.60;;;15.20;;
31464;SDS011;18089;47.428;15.006;2023-01-19T09:51:16;14.87;;;13.77;;
31464;SDS011;18089;47.428;15.006;2023-01-19T09:53:55;15.00;;;13.90;;
31464;SDS011;18089;47.428;15.006;2023-01-19T09:56:30;14.57;;;13.57;;
31464;SDS011;18089;47.428;15.006;2023-01-19T09:59:10;14.60;;;13.60;;
31464;SDS011;18089;47.428;15.006;2023-01-19T10:01:58;14.07;;;13.17;;
31464;SDS011;18089;47.428;15.006;2023-01-19T10:04:47;14.57;;;13.50;;
31464;SDS011;18089;47.428;15.006;2023-01-19T10:07:30;17.27;;;15.97;;
31464;SDS011;18089;47.428;15.006;2023-01-19T10:10:07;18.73;;;17.10;;
31464;SDS011;18089;47.428;15.006;2023-01-19T10:12:53;18.93;;;17.23;;
31464;SDS011;18089;47.428;15.006;2023-01-19T10:15:56;21.00;;;19.10;;
31464;SDS011;18089;47.428;15.006;2023-01-19T10:18:36;24.43;;;21.97;;
31464;SDS011;18089;47.428;15.006;2023-01-19T10:21:18;24.70;;;22.33;;
31464;SDS011;18089;47.428;15.006;2023-01-19T10:23:52;21.80;;;19.87;;
31464;SDS011;18089;47.428;15.006;2023-01-19T10:26:28;17.93;;;14.87;;
31464;SDS011;18089;47.428;15.006;2023-01-19T10:29:04;13.60;;;12.70;;
31464;SDS011;18089;47.428;15.006;2023-01-19T10:31:37;15.00;;;13.90;;
31464;SDS011;18089;47.428;15.006;2023-01-19T10:34:10;17.17;;;15.77;;
31464;SDS011;18089;47.428;15.006;2023-01-19T10:36:49;18.20;;;16.33;;
31464;SDS011;18089;47.428;15.006;2023-01-19T10:39:27;17.47;;;15.93;;
31464;SDS011;18089;47.428;15.006;2023-01-19T10:41:59;20.80;;;18.70;;
31464;SDS011;18089;47.428;15.006;2023-01-19T10:44:34;14.60;;;13.57;;
31464;SDS011;18089;47.428;15.006;2023-01-19T10:47:11;14.23;;;13.30;;
31464;SDS011;18089;47.428;15.006;2023-01-19T10:49:46;13.57;;;12.67;;
31464;SDS011;18089;47.428;15.006;2023-01-19T10:52:21;13.97;;;12.93;;
31464;SDS011;18089;47.428;15.006;2023-01-19T10:54:56;15.27;;;14.13;;
31464;SDS011;18089;47.428;15.006;2023-01-19T10:57:30;14.83;;;13.83;;
31464;SDS011;18089;47.428;15.006;2023-01-19T11:00:06;16.63;;;15.33;;
31464;SDS011;18089;47.428;15.006;2023-01-19T11:03:20;14.53;;;13.43;;
31464;SDS011;18089;47.428;15.006;2023-01-19T11:05:53;14.23;;;13.13;;
31464;SDS011;18089;47.428;15.006;2023-01-19T11:08:27;15.27;;;14.17;;
31464;SDS011;18089;47.428;15.006;2023-01-19T11:11:01;14.30;;;13.30;;
31464;SDS011;18089;47.428;15.006;2023-01-19T11:13:37;13.70;;;12.80;;
31464;SDS011;18089;47.428;15.006;2023-01-19T11:16:14;15.30;;;14.10;;
31464;SDS011;18089;47.428;15.006;2023-01-19T11:18:50;18.90;;;17.20;;
31464;SDS011;18089;47.428;15.006;2023-01-19T11:21:23;17.60;;;16.00;;
31464;SDS011;18089;47.428;15.006;2023-01-19T11:23:57;16.53;;;15.23;;
31464;SDS011;18089;47.428;15.006;2023-01-19T11:26:31;15.27;;;13.97;;
31464;SDS011;18089;47.428;15.006;2023-01-19T11:29:05;15.40;;;14.27;;
31464;SDS011;18089;47.428;15.006;2023-01-19T11:31:44;15.60;;;14.33;;
31464;SDS011;18089;47.428;15.006;2023-01-19T11:34:23;14.43;;;13.43;;
31464;SDS011;18089;47.428;15.006;2023-01-19T11:36:59;15.53;;;14.23;;
31464;SDS011;18089;47.428;15.006;2023-01-19T11:39:43;14.70;;;13.70;;
31464;SDS011;18089;47.428;15.006;2023-01-19T11:42:17;15.90;;;14.60;;
31464;SDS011;18089;47.428;15.006;2023-01-19T11:44:52;15.63;;;14.33;;
31464;SDS011;18089;47.428;15.006;2023-01-19T11:47:32;19.10;;;14.77;;
31464;SDS011;18089;47.428;15.006;2023-01-19T11:50:12;14.50;;;13.30;;
31464;SDS011;18089;47.428;15.006;2023-01-19T11:52:46;28.83;;;19.90;;
31464;SDS011;18089;47.428;15.006;2023-01-19T11:55:21;26.57;;;17.90;;
31464;SDS011;18089;47.428;15.006;2023-01-19T11:57:55;14.77;;;13.37;;
31464;SDS011;18089;47.428;15.006;2023-01-19T12:00:28;13.00;;;12.10;;
31464;SDS011;18089;47.428;15.006;2023-01-19T12:03:09;17.10;;;14.63;;
31464;SDS011;18089;47.428;15.006;2023-01-19T12:05:45;13.60;;;12.60;;
31464;SDS011;18089;47.428;15.006;2023-01-19T12:08:19;13.70;;;12.60;;
31464;SDS011;18089;47.428;15.006;2023-01-19T12:10:54;17.67;;;14.60;;
31464;SDS011;18089;47.428;15.006;2023-01-19T12:13:28;12.67;;;11.87;;
31464;SDS011;18089;47.428;15.006;2023-01-19T12:16:03;12.63;;;11.93;;
31464;SDS011;18089;47.428;15.006;2023-01-19T12:18:38;12.67;;;11.83;;
31464;SDS011;18089;47.428;15.006;2023-01-19T12:21:12;13.00;;;12.20;;
31464;SDS011;18089;47.428;15.006;2023-01-19T12:23:49;13.37;;;12.47;;
31464;SDS011;18089;47.428;15.006;2023-01-19T12:26:27;12.60;;;11.90;;
31464;SDS011;18089;47.428;15.006;2023-01-19T12:29:05;13.63;;;12.63;;
31464;SDS011;18089;47.428;15.006;2023-01-19T12:31:41;13.90;;;13.00;;
31464;SDS011;18089;47.428;15.006;2023-01-19T12:34:28;14.60;;;13.40;;
31464;SDS011;18089;47.428;15.006;2023-01-19T12:40:03;15.27;;;13.97;;
31464;SDS011;18089;47.428;15.006;2023-01-19T12:42:52;14.20;;;13.30;;
31464;SDS011;18089;47.428;15.006;2023-01-19T12:45:30;14.77;;;13.57;;
31464;SDS011;18089;47.428;15.006;2023-01-19T12:48:03;14.40;;;13.40;;
31464;SDS011;18089;47.428;15.006;2023-01-19T12:50:42;15.07;;;13.87;;
31464;SDS011;18089;47.428;15.006;2023-01-19T12:53:17;14.90;;;13.80;;
31464;SDS011;18089;47.428;15.006;2023-01-19T12:56:00;15.43;;;14.23;;
31464;SDS011;18089;47.428;15.006;2023-01-19T12:58:35;14.63;;;13.63;;
31464;SDS011;18089;47.428;15.006;2023-01-19T13:01:13;15.90;;;14.60;;
31464;SDS011;18089;47.428;15.006;2023-01-19T13:03:57;14.43;;;13.43;;
31464;SDS011;18089;47.428;15.006;2023-01-19T13:09:42;16.67;;;15.37;;
31464;SDS011;18089;47.428;15.006;2023-01-19T13:12:24;19.07;;;16.00;;
31464;SDS011;18089;47.428;15.006;2023-01-19T13:17:57;13.80;;;12.90;;
31464;SDS011;18089;47.428;15.006;2023-01-19T13:20:32;13.50;;;12.33;;
31464;SDS011;18089;47.428;15.006;2023-01-19T13:23:20;13.13;;;12.33;;
31464;SDS011;18089;47.428;15.006;2023-01-19T13:26:03;14.40;;;13.50;;
31464;SDS011;18089;47.428;15.006;2023-01-19T13:28:39;13.43;;;12.53;;
31464;SDS011;18089;47.428;15.006;2023-01-19T13:31:12;14.03;;;13.03;;
31464;SDS011;18089;47.428;15.006;2023-01-19T13:33:46;15.20;;;14.10;;
31464;SDS011;18089;47.428;15.006;2023-01-19T13:36:23;14.97;;;13.87;;
31464;SDS011;18089;47.428;15.006;2023-01-19T13:39:00;14.43;;;13.23;;
31464;SDS011;18089;47.428;15.006;2023-01-19T13:41:35;15.90;;;14.40;;
31464;SDS011;18089;47.428;15.006;2023-01-19T13:44:11;15.07;;;13.87;;
31464;SDS011;18089;47.428;15.006;2023-01-19T13:46:45;14.30;;;13.37;;
31464;SDS011;18089;47.428;15.006;2023-01-19T13:49:18;17.13;;;15.63;;
31464;SDS011;18089;47.428;15.006;2023-01-19T13:52:06;27.07;;;24.17;;
31464;SDS011;18089;47.428;15.006;2023-01-19T13:54:47;17.37;;;15.87;;
31464;SDS011;18089;47.428;15.006;2023-01-19T13:57:23;15.37;;;14.10;;
31464;SDS011;18089;47.428;15.006;2023-01-19T14:00:04;14.30;;;13.33;;
31464;SDS011;18089;47.428;15.006;2023-01-19T14:02:50;16.57;;;15.27;;
31464;SDS011;18089;47.428;15.006;2023-01-19T14:05:24;15.93;;;14.67;;
31464;SDS011;18089;47.428;15.006;2023-01-19T14:08:01;16.37;;;14.93;;
31464;SDS011;18089;47.428;15.006;2023-01-19T14:10:37;47.43;;;29.60;;
31464;SDS011;18089;47.428;15.006;2023-01-19T14:13:12;16.63;;;15.40;;
31464;SDS011;18089;47.428;15.006;2023-01-19T14:15:46;16.50;;;15.20;;
31464;SDS011;18089;47.428;15.006;2023-01-19T14:18:23;16.13;;;14.93;;
31464;SDS011;18089;47.428;15.006;2023-01-19T14:20:57;16.80;;;15.30;;
31464;SDS011;18089;47.428;15.006;2023-01-19T14:23:38;16.20;;;14.90;;
31464;SDS011;18089;47.428;15.006;2023-01-19T14:29:20;16.20;;;14.77;;
31464;SDS011;18089;47.428;15.006;2023-01-19T14:32:11;14.97;;;13.97;;
31464;SDS011;18089;47.428;15.006;2023-01-19T14:34:45;15.00;;;13.90;;
31464;SDS011;18089;47.428;15.006;2023-01-19T14:37:22;14.43;;;13.43;;
31464;SDS011;18089;47.428;15.006;2023-01-19T14:39:56;14.73;;;13.73;;
31464;SDS011;18089;47.428;15.006;2023-01-19T14:42:31;14.37;;;13.47;;
31464;SDS011;18089;47.428;15.006;2023-01-19T14:45:06;14.90;;;13.70;;
31464;SDS011;18089;47.428;15.006;2023-01-19T14:47:51;15.70;;;14.50;;
31464;SDS011;18089;47.428;15.006;2023-01-19T14:50:25;15.40;;;14.30;;
31464;SDS011;18089;47.428;15.006;2023-01-19T14:52:59;15.70;;;14.57;;
31464;SDS011;18089;47.428;15.006;2023-01-19T14:55:34;14.23;;;13.33;;
31464;SDS011;18089;47.428;15.006;2023-01-19T14:58:10;15.53;;;14.40;;
31464;SDS011;18089;47.428;15.006;2023-01-19T15:00:44;16.40;;;15.20;;
31464;SDS011;18089;47.428;15.006;2023-01-19T15:03:16;15.97;;;14.67;;
31464;SDS011;18089;47.428;15.006;2023-01-19T15:05:48;15.63;;;14.30;;